.
WxDataArchive / Data Records for 2009-02-12
2009-02-11 February 2009 2009-02-13

Data Records for Thursday, 12 February 2009

Time	Temp	Chill	HIndex	Humid	Dewpt	 Wind 	HiWind	WindDir	Rain 	Barom 
-----	----	-----	------	-----	-----	------	------	-------	-----	----- 
00:00	37.3	30.8	37.3	84	32.9	9	17	270	0.00	29.607 
00:05	37.3	30.8	37.3	84	32.9	9	17	270	0.00	29.611 
00:10	37.2	31.2	37.2	84	32.8	8	20	270	0.00	29.620 
00:15	37.2	30.7	37.2	83	32.5	9	18	270	0.00	29.629 
00:20	37.0	31.5	37.0	84	32.6	7	17	270	0.00	29.633 
00:25	37.0	31.5	37.0	84	32.6	7	15	270	0.00	29.643 
00:30	36.9	31.4	36.9	84	32.5	7	14	270	0.00	29.643 
00:35	36.8	33.6	36.8	85	32.7	4	9	270	0.00	29.651 
00:40	36.6	32.5	36.6	85	32.5	5	11	270	0.00	29.654 
00:45	36.6	33.4	36.6	85	32.5	4	9	270	0.00	29.664 
00:50	36.5	32.4	36.5	84	32.1	5	10	270	0.00	29.666 
00:55	36.3	31.4	36.3	84	31.9	6	13	270	0.00	29.667 
01:00	36.3	31.4	36.3	84	31.9	6	14	270	0.00	29.679 
01:05	36.2	32.0	36.2	84	31.8	5	10	270	0.00	29.682 
01:10	36.2	32.0	36.2	84	31.8	5	10	270	0.00	29.687 
01:15	36.2	32.0	36.2	84	31.8	5	9	270	0.00	29.693 
01:20	36.2	31.2	36.2	83	31.5	6	12	270	0.00	29.696 
01:25	36.2	32.9	36.2	84	31.8	4	6	270	0.00	29.698 
01:30	36.2	32.0	36.2	83	31.5	5	12	270	0.00	29.702 
01:35	36.2	31.2	36.2	83	31.5	6	14	270	0.00	29.708 
01:40	36.2	32.0	36.2	83	31.5	5	11	270	0.00	29.711 
01:45	36.2	32.0	36.2	82	31.2	5	10	270	0.00	29.717 
01:50	36.2	32.9	36.2	82	31.2	4	11	270	0.00	29.723 
01:55	36.2	32.9	36.2	82	31.2	4	12	270	0.00	29.730 
02:00	36.3	30.1	36.3	81	31.0	8	15	270	0.00	29.734 
02:05	36.3	31.4	36.3	80	30.7	6	14	270	0.00	29.738 
02:10	36.3	31.4	36.3	80	30.7	6	15	270	0.00	29.744 
02:15	36.5	31.6	36.5	81	31.2	6	16	270	0.00	29.746 
02:20	36.5	32.4	36.5	81	31.2	5	12	270	0.00	29.752 
02:25	36.5	31.6	36.5	81	31.2	6	11	270	0.00	29.755 
02:30	36.5	32.4	36.5	81	31.2	5	10	270	0.00	29.761 
02:35	36.6	32.5	36.6	80	31.0	5	10	270	0.00	29.762 
02:40	36.6	31.7	36.6	79	30.7	6	13	270	0.00	29.764 
02:45	36.8	31.9	36.8	79	30.9	6	14	270	0.00	29.771 
02:50	36.8	32.7	36.8	79	30.9	5	11	270	0.00	29.769 
02:55	36.8	32.7	36.8	80	31.2	5	11	270	0.00	29.773 
03:00	36.8	33.6	36.8	81	31.5	4	10	270	0.00	29.777 
03:05	36.6	33.4	36.6	83	31.9	4	11	270	0.00	29.778 
03:10	36.5	32.4	36.5	84	32.1	5	10	270	0.00	29.783 
03:15	36.3	32.1	36.3	83	31.6	5	15	270	0.00	29.787 
03:20	36.2	32.9	36.2	87	32.7	4	11	270	0.00	29.790 
03:25	36.0	32.7	36.0	88	32.8	4	7	270	0.00	29.793 
03:30	35.9	32.6	35.9	89	33.0	4	10	270	0.00	29.794 
03:35	35.9	31.7	35.9	89	33.0	5	10	270	0.00	29.795 
03:40	35.9	31.7	35.9	90	33.3	5	10	270	0.00	29.796 
03:45	35.8	31.5	35.8	90	33.2	5	13	270	0.00	29.795 
03:50	35.8	30.8	35.8	90	33.2	6	14	270	0.00	29.800 
03:55	35.6	32.2	35.6	91	33.2	4	10	292	0.00	29.803 
04:00	35.6	32.2	35.6	91	33.2	4	11	270	0.00	29.810 
04:05	35.6	32.2	35.6	91	33.2	4	12	270	0.00	29.813 
04:10	35.6	30.5	35.6	91	33.2	6	13	270	0.00	29.813 
04:15	35.6	32.2	35.6	91	33.2	4	10	270	0.00	29.824 
04:20	35.5	31.2	35.5	91	33.1	5	13	270	0.00	29.825 
04:25	35.5	30.4	35.5	91	33.1	6	13	270	0.00	29.826 
04:30	35.6	31.3	35.6	90	33.0	5	11	270	0.00	29.827 
04:35	35.6	31.3	35.6	89	32.7	5	16	270	0.00	29.828 
04:40	35.8	32.5	35.8	88	32.6	4	10	270	0.00	29.831 
04:45	35.8	31.5	35.8	88	32.6	5	12	270	0.00	29.838 
04:50	35.9	32.6	35.9	87	32.4	4	10	270	0.00	29.841 
04:55	35.9	31.7	35.9	87	32.4	5	13	270	0.00	29.842 
05:00	35.9	32.6	35.9	86	32.1	4	11	270	0.00	29.843 
05:05	35.9	32.6	35.9	86	32.1	4	7	270	0.00	29.845 
05:10	35.9	32.6	35.9	85	31.8	4	13	270	0.00	29.847 
05:15	35.9	32.6	35.9	85	31.8	4	10	270	0.00	29.850 
05:20	35.9	31.7	35.9	84	31.5	5	15	270	0.00	29.855 
05:25	35.9	32.6	35.9	84	31.5	4	11	270	0.00	29.859 
05:30	35.8	31.5	35.8	84	31.4	5	10	270	0.00	29.861 
05:35	35.9	31.7	35.9	83	31.2	5	12	270	0.00	29.861 
05:40	35.9	32.6	35.9	83	31.2	4	12	270	0.00	29.863 
05:45	35.8	32.5	35.8	83	31.2	4	10	270	0.00	29.870 
05:50	35.8	31.5	35.8	82	30.9	5	12	270	0.00	29.874 
05:55	35.8	35.8	35.8	83	31.2	3	9	270	0.00	29.875 
06:00	35.8	32.5	35.8	82	30.9	4	15	270	0.00	29.873 
06:05	35.8	31.5	35.8	82	30.9	5	14	270	0.00	29.878 
06:10	35.8	31.5	35.8	82	30.9	5	11	270	0.00	29.879 
06:15	35.8	31.5	35.8	81	30.6	5	12	270	0.00	29.883 
06:20	35.6	32.2	35.6	81	30.4	4	15	270	0.00	29.886 
06:25	35.6	32.2	35.6	81	30.4	4	15	270	0.00	29.891 
06:30	35.6	32.2	35.6	81	30.4	4	12	270	0.00	29.892 
06:35	35.6	32.2	35.6	81	30.4	4	9	270	0.00	29.892 
06:40	35.6	32.2	35.6	81	30.4	4	9	270	0.00	29.893 
06:45	35.6	32.2	35.6	80	30.1	4	9	270	0.00	29.894 
06:50	35.6	31.3	35.6	80	30.1	5	12	270	0.00	29.894 
06:55	35.6	31.3	35.6	79	29.7	5	11	270	0.00	29.897 
07:00	35.5	35.5	35.5	79	29.6	3	10	270	0.00	29.901 
07:05	35.5	35.5	35.5	78	29.3	3	7	270	0.00	29.909 
07:10	35.5	32.1	35.5	77	29.0	4	9	270	0.00	29.911 
07:15	35.3	35.3	35.3	77	28.8	3	7	270	0.00	29.913 
07:20	35.2	35.2	35.2	78	29.0	3	10	248	0.00	29.914 
07:25	34.9	34.9	34.9	79	29.1	3	9	270	0.00	29.915 
07:30	34.6	34.6	34.6	79	28.8	3	6	270	0.00	29.921 
07:35	34.3	30.7	34.3	79	28.5	4	11	270	0.00	29.924 
07:40	34.1	30.5	34.1	79	28.3	4	11	270	0.00	29.930 
07:45	33.8	30.2	33.8	79	28.0	4	11	270	0.00	29.934 
07:50	33.7	30.0	33.7	79	27.9	4	12	270	0.00	29.934 
07:55	33.4	33.4	33.4	79	27.6	3	9	270	0.00	29.932 
08:00	33.2	29.5	33.2	79	27.4	4	10	270	0.00	29.933 
08:05	33.2	29.5	33.2	80	27.7	4	14	270	0.00	29.940 
08:10	33.2	29.5	33.2	80	27.7	4	11	270	0.00	29.945 
08:15	33.4	28.7	33.4	80	27.9	5	13	270	0.00	29.943 
08:20	33.4	33.4	33.4	80	27.9	3	7	270	0.00	29.947 
08:25	33.5	29.8	33.5	80	28.0	4	13	270	0.00	29.946 
08:30	33.7	28.3	33.7	79	27.9	6	15	270	0.00	29.948 
08:35	33.8	29.2	33.8	79	28.0	5	12	270	0.00	29.948 
08:40	34.0	30.4	34.0	79	28.2	4	10	270	0.00	29.948 
08:45	34.1	30.5	34.1	79	28.3	4	11	270	0.00	29.949 
08:50	34.4	30.8	34.4	79	28.6	4	10	270	0.00	29.949 
08:55	34.6	30.1	34.6	78	28.5	5	11	270	0.00	29.949 
09:00	34.9	31.4	34.9	77	28.4	4	10	270	0.00	29.948 
09:05	35.2	30.8	35.2	76	28.4	5	15	270	0.00	29.951 
09:10	35.5	32.1	35.5	76	28.7	4	10	270	0.00	29.955 
09:15	35.5	31.2	35.5	75	28.4	5	13	270	0.00	29.960 
09:20	35.6	31.3	35.6	75	28.5	5	13	270	0.00	29.957 
09:25	35.8	31.5	35.8	75	28.7	5	11	270	0.00	29.958 
09:30	35.9	31.7	35.9	75	28.8	5	11	270	0.00	29.963 
09:35	35.9	31.7	35.9	75	28.8	5	15	270	0.00	29.961 
09:40	36.0	32.7	36.0	76	29.2	4	10	248	0.00	29.958 
09:45	36.2	32.0	36.2	74	28.7	5	16	270	0.00	29.957 
09:50	36.3	32.1	36.3	74	28.8	5	13	270	0.00	29.962 
09:55	36.5	31.6	36.5	73	28.7	6	15	270	0.00	29.955 
10:00	36.8	31.3	36.8	72	28.6	7	15	270	0.00	29.955 
10:05	37.0	32.2	37.0	71	28.5	6	18	270	0.00	29.954 
10:10	37.3	33.3	37.3	71	28.8	5	12	270	0.00	29.956 
10:15	37.6	33.7	37.6	70	28.7	5	13	270	0.00	29.951 
10:20	37.9	34.0	37.9	69	28.7	5	16	270	0.00	29.950 
10:25	38.2	33.0	38.2	67	28.2	7	16	270	0.00	29.949 
10:30	38.2	33.0	38.2	67	28.2	7	17	270	0.00	29.950 
10:35	38.5	34.0	38.5	67	28.5	6	14	270	0.00	29.952 
10:40	38.5	33.3	38.5	65	27.8	7	20	270	0.01	29.952 
10:45	38.8	34.3	38.8	66	28.4	6	13	270	0.00	29.954 
10:50	38.9	33.2	38.9	65	28.2	8	17	270	0.00	29.959 
10:55	38.9	32.7	38.9	63	27.4	9	17	270	0.00	29.962 
11:00	38.8	32.6	38.8	63	27.3	9	16	270	0.00	29.966 
11:05	38.6	32.9	38.6	63	27.1	8	14	270	0.00	29.966 
11:10	39.1	34.1	39.1	62	27.2	7	12	270	0.00	29.974 
11:15	39.5	35.2	39.5	64	28.3	6	16	270	0.00	29.979 
11:20	39.1	34.1	39.1	62	27.2	7	17	270	0.00	29.978 
11:25	39.1	34.1	39.1	62	27.2	7	14	270	0.00	29.985 
11:30	39.1	34.7	39.1	62	27.2	6	12	270	0.00	29.986 
11:35	38.9	34.4	38.9	62	27.0	6	12	270	0.00	29.985 
11:40	38.9	36.0	38.9	64	27.8	4	13	270	0.00	29.988 
11:45	39.1	34.1	39.1	61	26.8	7	12	270	0.00	29.990 
11:50	39.1	34.1	39.1	62	27.2	7	12	270	0.00	29.993 
11:55	39.3	34.9	39.3	63	27.8	6	12	270	0.00	29.995 
12:00	40.1	36.6	40.1	62	28.1	5	13	270	0.00	29.995 
12:05	40.5	36.4	40.5	62	28.5	6	14	270	0.00	29.990 
12:10	40.9	36.2	40.9	60	28.1	7	18	270	0.00	29.994 
12:15	40.8	36.7	40.8	61	28.4	6	15	270	0.00	29.994 
12:20	40.9	37.5	40.9	60	28.1	5	14	270	0.00	29.995 
12:25	40.8	36.7	40.8	59	27.6	6	13	270	0.00	29.996 
12:30	40.8	36.7	40.8	59	27.6	6	12	270	0.00	29.995 
12:35	41.1	37.8	41.1	60	28.3	5	14	270	0.00	29.995 
12:40	41.6	37.7	41.6	61	29.2	6	14	270	0.00	29.992 
12:45	42.2	39.1	42.2	58	28.5	5	13	292	0.00	29.995 
12:50	41.8	37.9	41.8	57	27.7	6	15	270	0.00	29.993 
12:55	41.8	38.6	41.8	58	28.1	5	9	270	0.00	29.994 
13:00	42.1	39.7	42.1	60	29.2	4	11	270	0.00	29.994 
13:05	42.2	37.8	42.2	56	27.6	7	17	270	0.00	29.992 
13:10	42.6	39.5	42.6	56	28.0	5	16	270	0.00	29.992 
13:15	42.6	39.5	42.6	57	28.4	5	15	270	0.00	29.994 
13:20	42.6	40.3	42.6	58	28.9	4	10	270	0.00	29.994 
13:25	42.8	40.6	42.8	58	29.1	4	10	270	0.00	29.994 
13:30	43.8	43.8	43.8	59	30.4	3	9	270	0.00	29.990 
13:35	44.3	42.3	44.3	56	29.6	4	13	270	0.00	29.992 
13:40	44.5	41.8	44.5	57	30.2	5	10	270	0.00	29.991 
13:45	44.2	40.8	44.2	55	29.1	6	13	270	0.00	29.991 
13:50	43.6	39.5	43.6	53	27.6	7	17	270	0.00	29.990 
13:55	43.3	39.1	43.3	55	28.2	7	16	270	0.00	29.992 
14:00	43.3	39.7	43.3	57	29.1	6	15	270	0.00	29.991 
14:05	44.1	41.3	44.1	58	30.3	5	10	270	0.00	29.987 
14:10	44.2	40.8	44.2	56	29.5	6	19	270	0.00	29.990 
14:15	44.1	39.6	44.1	54	28.5	8	17	270	0.00	29.991 
14:20	44.2	40.8	44.2	56	29.5	6	12	270	0.00	29.988 
14:25	44.6	42.6	44.6	54	29.0	4	13	270	0.00	29.989 
14:30	44.2	41.4	44.2	54	28.6	5	12	270	0.00	29.992 
14:35	44.2	42.2	44.2	54	28.6	4	8	270	0.00	29.991 
14:40	43.8	40.9	43.8	55	28.7	5	14	270	0.00	29.993 
14:45	43.6	40.7	43.6	54	28.1	5	11	270	0.00	29.994 
14:50	43.9	41.1	43.9	55	28.8	5	11	270	0.00	29.992 
14:55	44.6	41.9	44.6	55	29.4	5	9	270	0.00	29.993 
15:00	44.8	41.5	44.8	54	29.2	6	15	270	0.00	29.992 
15:05	44.8	42.1	44.8	56	30.1	5	12	270	0.00	29.994 
15:10	45.1	42.5	45.1	55	29.9	5	12	270	0.00	29.994 
15:15	45.1	42.5	45.1	55	29.9	5	12	270	0.00	29.998 
15:20	45.4	42.2	45.4	54	29.7	6	15	270	0.00	30.000 
15:25	45.2	42.6	45.2	55	30.0	5	12	270	0.00	30.002 
15:30	45.5	42.9	45.5	54	29.8	5	12	270	0.00	30.004 
15:35	45.4	42.2	45.4	54	29.7	6	16	270	0.00	30.003 
15:40	45.1	41.3	45.1	54	29.5	7	16	270	0.00	30.006 
15:45	45.4	42.8	45.4	53	29.3	5	16	270	0.00	30.007 
15:50	45.2	42.6	45.2	54	29.6	5	12	270	0.00	30.008 
15:55	45.5	42.9	45.5	55	30.3	5	10	270	0.00	30.009 
16:00	45.7	43.2	45.7	55	30.5	5	14	270	0.00	30.008 
16:05	45.2	42.0	45.2	54	29.6	6	15	270	0.00	30.010 
16:10	45.2	42.6	45.2	54	29.6	5	12	270	0.00	30.013 
16:15	44.9	41.6	44.9	54	29.3	6	14	270	0.00	30.015 
16:20	44.9	41.6	44.9	54	29.3	6	15	270	0.00	30.017 
16:25	45.2	43.3	45.2	55	30.0	4	10	270	0.00	30.018 
16:30	45.2	42.6	45.2	54	29.6	5	15	270	0.00	30.019 
16:35	44.9	44.9	44.9	55	29.7	3	6	270	0.00	30.021 
16:40	44.2	42.2	44.2	56	29.5	4	10	270	0.00	30.024 
16:45	43.6	40.7	43.6	57	29.4	5	13	270	0.00	30.024 
16:50	43.3	40.3	43.3	57	29.1	5	13	270	0.00	30.027 
16:55	43.3	41.1	43.3	58	29.5	4	9	270	0.00	30.029 
17:00	43.2	43.2	43.2	58	29.4	3	9	270	0.00	30.031 
17:05	43.2	43.2	43.2	58	29.4	3	6	270	0.00	30.035 
17:10	43.1	43.1	43.1	58	29.3	2	9	292	0.00	30.039 
17:15	42.8	42.8	42.8	59	29.5	3	9	270	0.00	30.041 
17:20	42.5	40.2	42.5	59	29.2	4	9	292	0.00	30.042 
17:25	42.3	42.3	42.3	59	29.0	2	7	270	0.00	30.045 
17:30	42.2	42.2	42.2	60	29.3	2	7	270	0.00	30.045 
17:35	41.9	41.9	41.9	61	29.4	2	6	270	0.00	30.046 
17:40	41.8	41.8	41.8	61	29.4	2	5	248	0.00	30.050 
17:45	41.6	41.6	41.6	62	29.6	2	4	248	0.00	30.052 
17:50	41.5	41.5	41.5	62	29.5	3	6	270	0.00	30.052 
17:55	41.3	41.3	41.3	63	29.7	2	5	270	0.00	30.055 
18:00	41.2	41.2	41.2	63	29.6	2	4	315	0.00	30.058 
18:05	41.1	41.1	41.1	63	29.5	2	7	270	0.00	30.059 
18:10	41.1	41.1	41.1	63	29.5	2	6	270	0.00	30.060 
18:15	40.9	40.9	40.9	63	29.3	2	7	270	0.00	30.061 
18:20	40.8	40.8	40.8	63	29.2	2	7	270	0.00	30.063 
18:25	40.6	40.6	40.6	64	29.4	3	7	270	0.00	30.064 
18:30	40.5	40.5	40.5	64	29.3	3	6	315	0.00	30.065 
18:35	40.3	40.3	40.3	64	29.1	2	5	270	0.00	30.067 
18:40	40.2	40.2	40.2	65	29.4	2	5	248	0.00	30.069 
18:45	40.1	40.1	40.1	64	28.9	3	6	270	0.00	30.073 
18:50	40.1	40.1	40.1	65	29.3	2	7	270	0.00	30.074 
18:55	39.9	39.9	39.9	64	28.7	2	7	270	0.00	30.073 
19:00	39.8	39.8	39.8	65	29.0	2	5	315	0.00	30.074 
19:05	39.5	39.5	39.5	64	28.3	2	7	315	0.00	30.079 
19:10	39.5	39.5	39.5	64	28.3	2	6	315	0.00	30.078 
19:15	39.3	39.3	39.3	64	28.2	2	4	315	0.00	30.080 
19:20	39.2	39.2	39.2	64	28.1	2	6	315	0.00	30.081 
19:25	39.2	39.2	39.2	65	28.4	2	5	292	0.00	30.082 
19:30	39.1	39.1	39.1	65	28.3	2	5	270	0.00	30.084 
19:35	39.1	39.1	39.1	65	28.3	2	5	270	0.00	30.084 
19:40	38.9	38.9	38.9	65	28.2	2	6	315	0.00	30.083 
19:45	38.8	38.8	38.8	65	28.1	2	4	338	0.00	30.082 
19:50	38.6	38.6	38.6	66	28.2	2	6	270	0.00	30.082 
19:55	38.6	38.6	38.6	66	28.2	2	5	270	0.00	30.082 
20:00	38.5	38.5	38.5	66	28.1	1	4	270	0.00	30.082 
20:05	38.5	38.5	38.5	67	28.5	1	4	270	0.00	30.079 
20:10	38.3	38.3	38.3	67	28.3	0	3	270	0.00	30.080 
20:15	38.2	38.2	38.2	68	28.6	1	3	270	0.00	30.083 
20:20	38.0	38.0	38.0	69	28.7	0	2	270	0.00	30.084 
20:25	37.9	37.9	37.9	69	28.7	0	2	292	0.00	30.085 
20:30	37.8	37.8	37.8	69	28.6	1	3	292	0.00	30.086 
20:35	37.8	37.8	37.8	70	28.9	0	3	292	0.00	30.088 
20:40	37.6	37.6	37.6	70	28.7	1	3	315	0.00	30.088 
20:45	37.6	37.6	37.6	70	28.7	1	4	292	0.00	30.090 
20:50	37.6	37.6	37.6	70	28.7	0	4	315	0.00	30.092 
20:55	37.5	37.5	37.5	70	28.6	1	4	248	0.00	30.092 
21:00	37.5	37.5	37.5	70	28.6	2	6	315	0.00	30.093 
21:05	37.5	37.5	37.5	70	28.6	2	5	292	0.00	30.092 
21:10	37.5	37.5	37.5	70	28.6	2	6	292	0.00	30.093 
21:15	37.5	37.5	37.5	70	28.6	2	4	270	0.00	30.096 
21:20	37.3	37.3	37.3	70	28.4	3	6	315	0.00	30.102 
21:25	37.0	37.0	37.0	66	26.7	3	9	292	0.00	30.105 
21:30	36.9	36.9	36.9	65	26.3	3	5	270	0.00	30.108 
21:35	36.8	36.8	36.8	65	26.2	3	7	270	0.00	30.108 
21:40	36.5	36.5	36.5	66	26.2	3	7	270	0.00	30.109 
21:45	36.3	36.3	36.3	66	26.0	3	7	270	0.00	30.110 
21:50	36.3	36.3	36.3	67	26.4	2	5	292	0.00	30.112 
21:55	36.2	36.2	36.2	67	26.3	3	7	270	0.00	30.114 
22:00	36.0	36.0	36.0	68	26.5	2	6	270	0.00	30.116 
22:05	36.0	36.0	36.0	67	26.1	3	7	270	0.00	30.115 
22:10	35.9	35.9	35.9	68	26.4	2	4	292	0.00	30.115 
22:15	35.9	35.9	35.9	68	26.4	2	4	270	0.00	30.114 
22:20	35.9	35.9	35.9	68	26.4	2	4	270	0.00	30.114 
22:25	35.9	35.9	35.9	68	26.4	1	4	338	0.00	30.112 
22:30	35.8	35.8	35.8	69	26.6	2	4	270	0.00	30.110 
22:35	35.8	35.8	35.8	69	26.6	1	2	270	0.00	30.110 
22:40	35.6	35.6	35.6	69	26.4	1	4	315	0.00	30.109 
22:45	35.5	35.5	35.5	70	26.7	1	3	315	0.00	30.110 
22:50	35.3	35.3	35.3	70	26.5	1	3	248	0.00	30.109 
22:55	35.2	35.2	35.2	71	26.8	1	3	248	0.00	30.108 
23:00	35.0	35.0	35.0	71	26.6	1	4	248	0.00	30.108 
23:05	34.9	34.9	34.9	72	26.8	1	2	248	0.00	30.109 
23:10	34.9	34.9	34.9	72	26.8	1	5	248	0.00	30.110 
23:15	34.7	34.7	34.7	73	26.9	1	3	248	0.00	30.110 
23:20	34.6	34.6	34.6	73	26.9	2	5	248	0.00	30.110 
23:25	34.6	34.6	34.6	73	26.9	2	6	248	0.00	30.110 
23:30	34.6	34.6	34.6	73	26.9	2	7	248	0.00	30.110 
23:35	34.3	34.3	34.3	73	26.6	1	6	248	0.00	30.111 
23:40	34.1	34.1	34.1	74	26.7	1	4	248	0.00	30.110 
23:45	33.8	33.8	33.8	75	26.7	1	3	248	0.00	30.110 
23:50	33.7	33.7	33.7	75	26.6	1	5	248	0.00	30.111 
23:55	33.5	33.5	33.5	75	26.4	2	5	248	0.00	30.110 

CoCoRaHS
IN-AL-39
A2 Web Hosting
Creative Commons License
GoDaddy
search engine by freefind advanced

loaded 2018-11-20 15:32:54 • last modified 2010-11-18 10:43:29
Privacy PolicyDisclaimer
• wx.awcolley.com is powered by PmWiki v.2002016 •
• all content (unless otherwise noted) © 2018 A W Colley